sensor_id;sensor_type;location;lat;lon;timestamp;P1;durP1;ratioP1;P2;durP2;ratioP2
48805;SDS011;34625;47.176;27.548;2023-08-20T00:00:11;14.50;;;5.47;;
48805;SDS011;34625;47.176;27.548;2023-08-20T00:02:40;13.10;;;5.30;;
48805;SDS011;34625;47.176;27.548;2023-08-20T00:05:08;16.80;;;5.72;;
48805;SDS011;34625;47.176;27.548;2023-08-20T00:07:35;10.98;;;4.97;;
48805;SDS011;34625;47.176;27.548;2023-08-20T00:10:04;6.18;;;4.53;;
48805;SDS011;34625;47.176;27.548;2023-08-20T00:12:31;10.18;;;4.80;;
48805;SDS011;34625;47.176;27.548;2023-08-20T00:14:59;8.13;;;4.70;;
48805;SDS011;34625;47.176;27.548;2023-08-20T00:17:36;12.07;;;4.65;;
48805;SDS011;34625;47.176;27.548;2023-08-20T00:20:04;6.95;;;4.80;;
48805;SDS011;34625;47.176;27.548;2023-08-20T00:22:42;9.85;;;5.07;;
48805;SDS011;34625;47.176;27.548;2023-08-20T00:25:10;18.35;;;5.60;;
48805;SDS011;34625;47.176;27.548;2023-08-20T00:27:38;9.63;;;4.97;;
48805;SDS011;34625;47.176;27.548;2023-08-20T00:30:05;10.13;;;5.53;;
48805;SDS011;34625;47.176;27.548;2023-08-20T00:32:31;11.82;;;5.30;;
48805;SDS011;34625;47.176;27.548;2023-08-20T00:34:57;7.60;;;4.63;;
48805;SDS011;34625;47.176;27.548;2023-08-20T00:37:24;11.15;;;4.80;;
48805;SDS011;34625;47.176;27.548;2023-08-20T00:39:51;6.63;;;4.93;;
48805;SDS011;34625;47.176;27.548;2023-08-20T00:42:17;6.38;;;4.85;;
48805;SDS011;34625;47.176;27.548;2023-08-20T00:44:43;5.60;;;4.35;;
48805;SDS011;34625;47.176;27.548;2023-08-20T00:47:15;9.27;;;4.93;;
48805;SDS011;34625;47.176;27.548;2023-08-20T00:49:43;10.15;;;4.70;;
48805;SDS011;34625;47.176;27.548;2023-08-20T00:52:11;14.43;;;5.13;;
48805;SDS011;34625;47.176;27.548;2023-08-20T00:54:39;7.95;;;4.65;;
48805;SDS011;34625;47.176;27.548;2023-08-20T00:57:06;6.55;;;4.60;;
48805;SDS011;34625;47.176;27.548;2023-08-20T00:59:33;16.15;;;4.72;;
48805;SDS011;34625;47.176;27.548;2023-08-20T01:02:03;8.82;;;5.32;;
48805;SDS011;34625;47.176;27.548;2023-08-20T01:04:29;9.48;;;5.25;;
48805;SDS011;34625;47.176;27.548;2023-08-20T01:12:19;8.57;;;5.50;;
48805;SDS011;34625;47.176;27.548;2023-08-20T01:14:48;10.07;;;5.25;;
48805;SDS011;34625;47.176;27.548;2023-08-20T01:17:14;6.15;;;4.82;;
48805;SDS011;34625;47.176;27.548;2023-08-20T01:19:40;7.90;;;5.00;;
48805;SDS011;34625;47.176;27.548;2023-08-20T01:30:49;11.55;;;5.50;;
48805;SDS011;34625;47.176;27.548;2023-08-20T01:33:17;8.70;;;5.15;;
48805;SDS011;34625;47.176;27.548;2023-08-20T01:35:44;9.55;;;5.30;;
48805;SDS011;34625;47.176;27.548;2023-08-20T01:38:14;10.25;;;5.45;;
48805;SDS011;34625;47.176;27.548;2023-08-20T01:40:40;6.82;;;5.88;;
48805;SDS011;34625;47.176;27.548;2023-08-20T01:43:07;9.85;;;6.10;;
48805;SDS011;34625;47.176;27.548;2023-08-20T01:45:33;6.43;;;4.93;;
48805;SDS011;34625;47.176;27.548;2023-08-20T01:47:59;12.30;;;6.35;;
48805;SDS011;34625;47.176;27.548;2023-08-20T01:50:25;7.50;;;4.88;;
48805;SDS011;34625;47.176;27.548;2023-08-20T01:52:51;13.75;;;5.40;;
48805;SDS011;34625;47.176;27.548;2023-08-20T01:55:17;12.43;;;5.35;;
48805;SDS011;34625;47.176;27.548;2023-08-20T01:57:43;10.57;;;5.25;;
48805;SDS011;34625;47.176;27.548;2023-08-20T02:00:09;11.38;;;5.43;;
48805;SDS011;34625;47.176;27.548;2023-08-20T02:05:08;6.80;;;5.20;;
48805;SDS011;34625;47.176;27.548;2023-08-20T02:07:37;6.50;;;4.93;;
48805;SDS011;34625;47.176;27.548;2023-08-20T02:10:04;11.95;;;5.47;;
48805;SDS011;34625;47.176;27.548;2023-08-20T02:12:30;6.68;;;5.40;;
48805;SDS011;34625;47.176;27.548;2023-08-20T02:14:56;9.30;;;4.95;;
48805;SDS011;34625;47.176;27.548;2023-08-20T02:17:24;9.05;;;4.45;;
48805;SDS011;34625;47.176;27.548;2023-08-20T02:19:50;6.95;;;5.13;;
48805;SDS011;34625;47.176;27.548;2023-08-20T02:22:16;6.63;;;5.07;;
48805;SDS011;34625;47.176;27.548;2023-08-20T02:24:42;15.40;;;5.88;;
48805;SDS011;34625;47.176;27.548;2023-08-20T02:27:08;7.78;;;5.85;;
48805;SDS011;34625;47.176;27.548;2023-08-20T02:29:34;10.48;;;5.47;;
48805;SDS011;34625;47.176;27.548;2023-08-20T02:32:00;8.32;;;4.97;;
48805;SDS011;34625;47.176;27.548;2023-08-20T02:34:29;6.60;;;5.15;;
48805;SDS011;34625;47.176;27.548;2023-08-20T02:36:55;7.40;;;5.28;;
48805;SDS011;34625;47.176;27.548;2023-08-20T02:39:22;7.70;;;5.05;;
48805;SDS011;34625;47.176;27.548;2023-08-20T02:41:49;10.18;;;5.18;;
48805;SDS011;34625;47.176;27.548;2023-08-20T02:44:15;15.00;;;5.53;;
48805;SDS011;34625;47.176;27.548;2023-08-20T02:46:41;12.60;;;5.65;;
48805;SDS011;34625;47.176;27.548;2023-08-20T02:49:10;9.98;;;4.63;;
48805;SDS011;34625;47.176;27.548;2023-08-20T02:51:36;7.68;;;5.38;;
48805;SDS011;34625;47.176;27.548;2023-08-20T02:54:02;13.85;;;5.53;;
48805;SDS011;34625;47.176;27.548;2023-08-20T02:56:29;9.73;;;4.85;;
48805;SDS011;34625;47.176;27.548;2023-08-20T02:58:55;9.13;;;6.05;;
48805;SDS011;34625;47.176;27.548;2023-08-20T03:01:27;12.02;;;5.35;;
48805;SDS011;34625;47.176;27.548;2023-08-20T03:03:54;10.35;;;5.57;;
48805;SDS011;34625;47.176;27.548;2023-08-20T03:06:20;7.50;;;5.13;;
48805;SDS011;34625;47.176;27.548;2023-08-20T03:08:47;12.20;;;5.55;;
48805;SDS011;34625;47.176;27.548;2023-08-20T03:11:13;11.27;;;5.68;;
48805;SDS011;34625;47.176;27.548;2023-08-20T03:13:39;10.32;;;5.40;;
48805;SDS011;34625;47.176;27.548;2023-08-20T03:16:05;7.63;;;5.18;;
48805;SDS011;34625;47.176;27.548;2023-08-20T03:18:31;8.57;;;5.70;;
48805;SDS011;34625;47.176;27.548;2023-08-20T03:20:57;9.85;;;5.50;;
48805;SDS011;34625;47.176;27.548;2023-08-20T03:23:23;10.45;;;5.47;;
48805;SDS011;34625;47.176;27.548;2023-08-20T03:25:50;6.57;;;5.32;;
48805;SDS011;34625;47.176;27.548;2023-08-20T03:28:17;8.80;;;5.88;;
48805;SDS011;34625;47.176;27.548;2023-08-20T03:30:44;7.07;;;5.13;;
48805;SDS011;34625;47.176;27.548;2023-08-20T03:33:14;10.50;;;5.13;;
48805;SDS011;34625;47.176;27.548;2023-08-20T03:35:42;6.90;;;5.47;;
48805;SDS011;34625;47.176;27.548;2023-08-20T03:38:09;14.27;;;5.55;;
48805;SDS011;34625;47.176;27.548;2023-08-20T03:40:35;13.18;;;5.65;;
48805;SDS011;34625;47.176;27.548;2023-08-20T03:43:02;12.48;;;5.50;;
48805;SDS011;34625;47.176;27.548;2023-08-20T03:45:29;8.77;;;5.70;;
48805;SDS011;34625;47.176;27.548;2023-08-20T03:47:56;11.40;;;5.72;;
48805;SDS011;34625;47.176;27.548;2023-08-20T03:50:22;9.48;;;5.25;;
48805;SDS011;34625;47.176;27.548;2023-08-20T03:52:48;6.82;;;5.28;;
48805;SDS011;34625;47.176;27.548;2023-08-20T03:55:15;10.43;;;5.45;;
48805;SDS011;34625;47.176;27.548;2023-08-20T03:57:42;11.65;;;5.07;;
48805;SDS011;34625;47.176;27.548;2023-08-20T04:00:08;12.40;;;5.22;;
48805;SDS011;34625;47.176;27.548;2023-08-20T04:02:41;5.88;;;4.88;;
48805;SDS011;34625;47.176;27.548;2023-08-20T04:05:07;9.50;;;5.25;;
48805;SDS011;34625;47.176;27.548;2023-08-20T04:07:34;14.38;;;5.93;;
48805;SDS011;34625;47.176;27.548;2023-08-20T04:10:01;7.85;;;5.45;;
48805;SDS011;34625;47.176;27.548;2023-08-20T04:12:27;9.98;;;5.68;;
48805;SDS011;34625;47.176;27.548;2023-08-20T04:14:55;6.57;;;4.85;;
48805;SDS011;34625;47.176;27.548;2023-08-20T04:17:22;16.63;;;5.97;;
48805;SDS011;34625;47.176;27.548;2023-08-20T04:19:50;7.40;;;5.45;;
48805;SDS011;34625;47.176;27.548;2023-08-20T04:22:16;9.32;;;5.30;;
48805;SDS011;34625;47.176;27.548;2023-08-20T04:24:42;12.75;;;6.47;;
48805;SDS011;34625;47.176;27.548;2023-08-20T04:27:08;12.20;;;5.38;;
48805;SDS011;34625;47.176;27.548;2023-08-20T04:29:36;7.32;;;5.53;;
48805;SDS011;34625;47.176;27.548;2023-08-20T04:32:02;12.23;;;5.50;;
48805;SDS011;34625;47.176;27.548;2023-08-20T04:34:28;8.63;;;6.13;;
48805;SDS011;34625;47.176;27.548;2023-08-20T04:36:55;11.77;;;6.53;;
48805;SDS011;34625;47.176;27.548;2023-08-20T04:39:21;8.77;;;5.72;;
48805;SDS011;34625;47.176;27.548;2023-08-20T04:41:51;11.75;;;5.93;;
48805;SDS011;34625;47.176;27.548;2023-08-20T04:44:18;8.20;;;5.53;;
48805;SDS011;34625;47.176;27.548;2023-08-20T04:46:45;12.40;;;5.72;;
48805;SDS011;34625;47.176;27.548;2023-08-20T04:49:12;13.32;;;6.13;;
48805;SDS011;34625;47.176;27.548;2023-08-20T04:51:38;6.10;;;5.50;;
48805;SDS011;34625;47.176;27.548;2023-08-20T04:54:04;11.82;;;5.60;;
48805;SDS011;34625;47.176;27.548;2023-08-20T04:56:31;9.07;;;5.40;;
48805;SDS011;34625;47.176;27.548;2023-08-20T04:58:57;11.38;;;5.50;;
48805;SDS011;34625;47.176;27.548;2023-08-20T05:01:41;7.05;;;5.13;;
48805;SDS011;34625;47.176;27.548;2023-08-20T05:04:11;12.07;;;5.88;;
48805;SDS011;34625;47.176;27.548;2023-08-20T05:06:37;9.93;;;4.43;;
48805;SDS011;34625;47.176;27.548;2023-08-20T05:09:04;11.68;;;5.82;;
48805;SDS011;34625;47.176;27.548;2023-08-20T05:11:30;7.07;;;5.30;;
48805;SDS011;34625;47.176;27.548;2023-08-20T05:13:58;11.10;;;5.90;;
48805;SDS011;34625;47.176;27.548;2023-08-20T05:16:24;7.20;;;5.45;;
48805;SDS011;34625;47.176;27.548;2023-08-20T05:18:50;13.52;;;5.72;;
48805;SDS011;34625;47.176;27.548;2023-08-20T05:21:17;8.02;;;6.25;;
48805;SDS011;34625;47.176;27.548;2023-08-20T05:23:43;4.93;;;4.20;;
48805;SDS011;34625;47.176;27.548;2023-08-20T05:26:09;7.20;;;5.05;;
48805;SDS011;34625;47.176;27.548;2023-08-20T05:28:36;5.03;;;4.05;;
48805;SDS011;34625;47.176;27.548;2023-08-20T05:31:02;7.07;;;5.90;;
48805;SDS011;34625;47.176;27.548;2023-08-20T05:33:28;7.10;;;5.60;;
48805;SDS011;34625;47.176;27.548;2023-08-20T05:35:54;9.68;;;4.97;;
48805;SDS011;34625;47.176;27.548;2023-08-20T05:38:21;6.47;;;5.03;;
48805;SDS011;34625;47.176;27.548;2023-08-20T05:40:49;7.65;;;4.45;;
48805;SDS011;34625;47.176;27.548;2023-08-20T05:43:15;7.70;;;5.32;;
48805;SDS011;34625;47.176;27.548;2023-08-20T05:45:42;6.43;;;4.32;;
48805;SDS011;34625;47.176;27.548;2023-08-20T05:48:11;7.40;;;4.18;;
48805;SDS011;34625;47.176;27.548;2023-08-20T05:50:37;14.18;;;5.30;;
48805;SDS011;34625;47.176;27.548;2023-08-20T05:53:04;7.75;;;5.90;;
48805;SDS011;34625;47.176;27.548;2023-08-20T05:55:31;3.83;;;3.50;;
48805;SDS011;34625;47.176;27.548;2023-08-20T05:57:57;1.80;;;1.70;;
48805;SDS011;34625;47.176;27.548;2023-08-20T06:00:23;2.42;;;1.80;;
48805;SDS011;34625;47.176;27.548;2023-08-20T06:02:49;1.40;;;1.30;;
48805;SDS011;34625;47.176;27.548;2023-08-20T06:05:16;1.45;;;1.17;;
48805;SDS011;34625;47.176;27.548;2023-08-20T06:07:42;0.80;;;0.80;;
48805;SDS011;34625;47.176;27.548;2023-08-20T06:10:08;1.30;;;1.00;;
48805;SDS011;34625;47.176;27.548;2023-08-20T06:12:34;1.25;;;1.17;;
48805;SDS011;34625;47.176;27.548;2023-08-20T06:15:00;1.58;;;1.48;;
48805;SDS011;34625;47.176;27.548;2023-08-20T06:17:28;2.75;;;2.35;;
48805;SDS011;34625;47.176;27.548;2023-08-20T06:19:54;3.30;;;3.10;;
48805;SDS011;34625;47.176;27.548;2023-08-20T06:22:20;5.40;;;3.60;;
48805;SDS011;34625;47.176;27.548;2023-08-20T06:24:46;6.53;;;4.10;;
48805;SDS011;34625;47.176;27.548;2023-08-20T06:27:22;4.75;;;4.18;;
48805;SDS011;34625;47.176;27.548;2023-08-20T06:29:51;5.75;;;4.93;;
48805;SDS011;34625;47.176;27.548;2023-08-20T06:32:26;6.25;;;5.65;;
48805;SDS011;34625;47.176;27.548;2023-08-20T06:35:00;11.02;;;6.68;;
48805;SDS011;34625;47.176;27.548;2023-08-20T06:37:27;9.38;;;7.50;;
48805;SDS011;34625;47.176;27.548;2023-08-20T06:39:53;9.60;;;7.65;;
48805;SDS011;34625;47.176;27.548;2023-08-20T06:42:19;11.10;;;5.30;;
48805;SDS011;34625;47.176;27.548;2023-08-20T06:44:45;8.57;;;5.30;;
48805;SDS011;34625;47.176;27.548;2023-08-20T06:47:11;7.05;;;4.68;;
48805;SDS011;34625;47.176;27.548;2023-08-20T06:49:37;12.57;;;5.15;;
48805;SDS011;34625;47.176;27.548;2023-08-20T06:52:03;6.40;;;4.93;;
48805;SDS011;34625;47.176;27.548;2023-08-20T06:54:29;7.40;;;4.97;;
48805;SDS011;34625;47.176;27.548;2023-08-20T06:56:55;8.70;;;5.53;;
48805;SDS011;34625;47.176;27.548;2023-08-20T06:59:21;6.35;;;5.70;;
48805;SDS011;34625;47.176;27.548;2023-08-20T07:01:48;6.45;;;5.72;;
48805;SDS011;34625;47.176;27.548;2023-08-20T07:04:14;9.23;;;6.07;;
48805;SDS011;34625;47.176;27.548;2023-08-20T07:06:40;14.38;;;6.78;;
48805;SDS011;34625;47.176;27.548;2023-08-20T07:09:07;8.90;;;5.72;;
48805;SDS011;34625;47.176;27.548;2023-08-20T07:11:33;7.88;;;6.10;;
48805;SDS011;34625;47.176;27.548;2023-08-20T07:13:59;8.13;;;5.45;;
48805;SDS011;34625;47.176;27.548;2023-08-20T07:16:25;7.60;;;5.65;;
48805;SDS011;34625;47.176;27.548;2023-08-20T07:18:51;7.93;;;5.78;;
48805;SDS011;34625;47.176;27.548;2023-08-20T07:21:18;8.40;;;5.53;;
48805;SDS011;34625;47.176;27.548;2023-08-20T07:23:44;7.75;;;5.22;;
48805;SDS011;34625;47.176;27.548;2023-08-20T07:26:10;6.32;;;5.25;;
48805;SDS011;34625;47.176;27.548;2023-08-20T07:28:37;7.45;;;5.60;;
48805;SDS011;34625;47.176;27.548;2023-08-20T07:31:22;4.70;;;4.20;;
48805;SDS011;34625;47.176;27.548;2023-08-20T07:33:49;5.28;;;4.53;;
48805;SDS011;34625;47.176;27.548;2023-08-20T07:36:16;4.40;;;3.97;;
48805;SDS011;34625;47.176;27.548;2023-08-20T07:38:43;7.13;;;4.32;;
48805;SDS011;34625;47.176;27.548;2023-08-20T07:41:09;6.90;;;4.00;;
48805;SDS011;34625;47.176;27.548;2023-08-20T07:43:39;5.18;;;4.10;;
48805;SDS011;34625;47.176;27.548;2023-08-20T07:46:06;4.78;;;4.35;;
48805;SDS011;34625;47.176;27.548;2023-08-20T07:48:36;8.13;;;3.75;;
48805;SDS011;34625;47.176;27.548;2023-08-20T07:51:03;5.55;;;4.18;;
48805;SDS011;34625;47.176;27.548;2023-08-20T07:53:29;6.47;;;4.40;;
48805;SDS011;34625;47.176;27.548;2023-08-20T07:55:56;9.25;;;4.25;;
48805;SDS011;34625;47.176;27.548;2023-08-20T07:58:22;5.20;;;4.05;;
48805;SDS011;34625;47.176;27.548;2023-08-20T08:00:48;5.10;;;3.78;;
48805;SDS011;34625;47.176;27.548;2023-08-20T08:03:14;5.35;;;3.92;;
48805;SDS011;34625;47.176;27.548;2023-08-20T08:05:51;4.70;;;4.07;;
48805;SDS011;34625;47.176;27.548;2023-08-20T08:08:18;7.07;;;4.70;;
48805;SDS011;34625;47.176;27.548;2023-08-20T08:10:44;3.63;;;3.30;;
48805;SDS011;34625;47.176;27.548;2023-08-20T08:13:11;6.80;;;3.83;;
48805;SDS011;34625;47.176;27.548;2023-08-20T08:15:38;6.38;;;3.85;;
48805;SDS011;34625;47.176;27.548;2023-08-20T08:18:04;5.80;;;4.05;;
48805;SDS011;34625;47.176;27.548;2023-08-20T08:20:30;5.63;;;3.55;;
48805;SDS011;34625;47.176;27.548;2023-08-20T08:22:57;5.75;;;3.85;;
48805;SDS011;34625;47.176;27.548;2023-08-20T08:25:23;4.28;;;3.35;;
48805;SDS011;34625;47.176;27.548;2023-08-20T08:27:49;4.28;;;3.88;;
48805;SDS011;34625;47.176;27.548;2023-08-20T08:30:15;5.10;;;3.63;;
48805;SDS011;34625;47.176;27.548;2023-08-20T08:32:41;6.40;;;3.78;;
48805;SDS011;34625;47.176;27.548;2023-08-20T08:35:07;5.78;;;4.00;;
48805;SDS011;34625;47.176;27.548;2023-08-20T08:37:33;5.07;;;3.55;;
48805;SDS011;34625;47.176;27.548;2023-08-20T08:39:59;4.57;;;3.35;;
48805;SDS011;34625;47.176;27.548;2023-08-20T08:42:25;6.88;;;3.63;;
48805;SDS011;34625;47.176;27.548;2023-08-20T08:44:51;4.32;;;3.47;;
48805;SDS011;34625;47.176;27.548;2023-08-20T08:47:18;4.20;;;3.33;;
48805;SDS011;34625;47.176;27.548;2023-08-20T08:49:47;4.50;;;3.53;;
48805;SDS011;34625;47.176;27.548;2023-08-20T08:52:14;3.85;;;3.10;;
48805;SDS011;34625;47.176;27.548;2023-08-20T08:54:41;4.72;;;3.40;;
48805;SDS011;34625;47.176;27.548;2023-08-20T08:57:07;5.78;;;3.53;;
48805;SDS011;34625;47.176;27.548;2023-08-20T08:59:34;5.18;;;3.75;;
48805;SDS011;34625;47.176;27.548;2023-08-20T09:02:00;4.00;;;3.50;;
48805;SDS011;34625;47.176;27.548;2023-08-20T09:04:26;4.60;;;3.60;;
48805;SDS011;34625;47.176;27.548;2023-08-20T09:06:53;4.82;;;4.00;;
48805;SDS011;34625;47.176;27.548;2023-08-20T09:09:21;6.30;;;3.78;;
48805;SDS011;34625;47.176;27.548;2023-08-20T09:11:48;3.90;;;3.50;;
48805;SDS011;34625;47.176;27.548;2023-08-20T09:14:20;7.05;;;3.50;;
48805;SDS011;34625;47.176;27.548;2023-08-20T09:16:53;3.50;;;3.17;;
48805;SDS011;34625;47.176;27.548;2023-08-20T09:19:30;4.22;;;3.38;;
48805;SDS011;34625;47.176;27.548;2023-08-20T09:22:00;4.45;;;3.60;;
48805;SDS011;34625;47.176;27.548;2023-08-20T09:27:03;5.82;;;3.67;;
48805;SDS011;34625;47.176;27.548;2023-08-20T09:29:33;5.95;;;4.38;;
48805;SDS011;34625;47.176;27.548;2023-08-20T09:32:16;5.70;;;4.15;;
48805;SDS011;34625;47.176;27.548;2023-08-20T09:34:47;5.40;;;4.50;;
48805;SDS011;34625;47.176;27.548;2023-08-20T09:37:18;6.43;;;4.20;;
48805;SDS011;34625;47.176;27.548;2023-08-20T09:39:45;8.57;;;4.45;;
48805;SDS011;34625;47.176;27.548;2023-08-20T09:42:12;6.72;;;4.55;;
48805;SDS011;34625;47.176;27.548;2023-08-20T09:44:40;9.85;;;4.38;;
48805;SDS011;34625;47.176;27.548;2023-08-20T09:47:11;7.28;;;4.68;;
48805;SDS011;34625;47.176;27.548;2023-08-20T09:49:39;5.03;;;4.55;;
48805;SDS011;34625;47.176;27.548;2023-08-20T09:52:07;10.07;;;4.75;;
48805;SDS011;34625;47.176;27.548;2023-08-20T09:57:30;6.97;;;4.50;;
48805;SDS011;34625;47.176;27.548;2023-08-20T10:00:01;5.40;;;4.90;;
48805;SDS011;34625;47.176;27.548;2023-08-20T10:02:39;7.45;;;4.65;;
48805;SDS011;34625;47.176;27.548;2023-08-20T10:05:06;12.73;;;6.03;;
48805;SDS011;34625;47.176;27.548;2023-08-20T10:07:33;10.95;;;5.25;;
48805;SDS011;34625;47.176;27.548;2023-08-20T10:10:00;7.63;;;5.18;;
48805;SDS011;34625;47.176;27.548;2023-08-20T10:12:28;6.60;;;5.25;;
48805;SDS011;34625;47.176;27.548;2023-08-20T10:14:58;9.10;;;5.28;;
48805;SDS011;34625;47.176;27.548;2023-08-20T10:17:25;7.43;;;5.47;;
48805;SDS011;34625;47.176;27.548;2023-08-20T10:19:56;6.05;;;5.07;;
48805;SDS011;34625;47.176;27.548;2023-08-20T10:22:32;6.32;;;4.97;;
48805;SDS011;34625;47.176;27.548;2023-08-20T10:25:08;10.57;;;5.43;;
48805;SDS011;34625;47.176;27.548;2023-08-20T10:27:47;6.70;;;4.72;;
48805;SDS011;34625;47.176;27.548;2023-08-20T10:30:16;5.90;;;4.55;;
48805;SDS011;34625;47.176;27.548;2023-08-20T10:32:46;8.75;;;4.45;;
48805;SDS011;34625;47.176;27.548;2023-08-20T10:35:17;6.15;;;4.32;;
48805;SDS011;34625;47.176;27.548;2023-08-20T10:38:04;5.03;;;4.40;;
48805;SDS011;34625;47.176;27.548;2023-08-20T10:46:07;5.70;;;4.00;;
48805;SDS011;34625;47.176;27.548;2023-08-20T10:48:43;7.65;;;4.55;;
48805;SDS011;34625;47.176;27.548;2023-08-20T10:51:16;4.72;;;4.20;;
48805;SDS011;34625;47.176;27.548;2023-08-20T10:56:42;4.93;;;4.03;;
48805;SDS011;34625;47.176;27.548;2023-08-20T10:59:27;4.13;;;3.72;;
48805;SDS011;34625;47.176;27.548;2023-08-20T11:01:55;7.45;;;4.53;;
48805;SDS011;34625;47.176;27.548;2023-08-20T11:04:24;5.03;;;4.13;;
48805;SDS011;34625;47.176;27.548;2023-08-20T11:06:53;7.40;;;4.55;;
48805;SDS011;34625;47.176;27.548;2023-08-20T11:09:24;6.65;;;4.60;;
48805;SDS011;34625;47.176;27.548;2023-08-20T11:11:52;8.07;;;4.30;;
48805;SDS011;34625;47.176;27.548;2023-08-20T11:14:18;3.83;;;3.35;;
48805;SDS011;34625;47.176;27.548;2023-08-20T11:16:45;7.60;;;4.38;;
48805;SDS011;34625;47.176;27.548;2023-08-20T11:19:14;5.97;;;4.30;;
48805;SDS011;34625;47.176;27.548;2023-08-20T11:21:43;4.13;;;3.72;;
48805;SDS011;34625;47.176;27.548;2023-08-20T11:24:11;4.82;;;3.85;;
48805;SDS011;34625;47.176;27.548;2023-08-20T11:26:40;6.05;;;3.42;;
48805;SDS011;34625;47.176;27.548;2023-08-20T11:29:11;6.20;;;4.03;;
48805;SDS011;34625;47.176;27.548;2023-08-20T11:31:39;6.60;;;4.10;;
48805;SDS011;34625;47.176;27.548;2023-08-20T11:34:05;4.38;;;3.97;;
48805;SDS011;34625;47.176;27.548;2023-08-20T11:36:33;5.47;;;4.25;;
48805;SDS011;34625;47.176;27.548;2023-08-20T11:39:00;5.88;;;4.40;;
48805;SDS011;34625;47.176;27.548;2023-08-20T11:41:26;4.80;;;3.90;;
48805;SDS011;34625;47.176;27.548;2023-08-20T11:43:53;8.02;;;4.55;;
48805;SDS011;34625;47.176;27.548;2023-08-20T11:46:20;6.35;;;4.10;;
48805;SDS011;34625;47.176;27.548;2023-08-20T11:49:05;4.35;;;3.50;;
48805;SDS011;34625;47.176;27.548;2023-08-20T11:51:36;4.30;;;3.65;;
48805;SDS011;34625;47.176;27.548;2023-08-20T11:54:04;5.55;;;4.13;;
48805;SDS011;34625;47.176;27.548;2023-08-20T11:56:33;4.00;;;3.60;;
48805;SDS011;34625;47.176;27.548;2023-08-20T11:59:00;4.68;;;4.18;;
48805;SDS011;34625;47.176;27.548;2023-08-20T12:01:31;8.13;;;3.70;;
48805;SDS011;34625;47.176;27.548;2023-08-20T12:04:03;4.68;;;3.58;;
48805;SDS011;34625;47.176;27.548;2023-08-20T12:06:31;6.78;;;4.10;;
48805;SDS011;34625;47.176;27.548;2023-08-20T12:08:57;7.28;;;4.03;;
48805;SDS011;34625;47.176;27.548;2023-08-20T12:11:27;5.60;;;4.65;;
48805;SDS011;34625;47.176;27.548;2023-08-20T12:13:53;7.05;;;4.45;;
48805;SDS011;34625;47.176;27.548;2023-08-20T12:16:23;5.63;;;3.88;;
48805;SDS011;34625;47.176;27.548;2023-08-20T12:18:50;6.07;;;4.07;;
48805;SDS011;34625;47.176;27.548;2023-08-20T12:21:18;8.23;;;4.57;;
48805;SDS011;34625;47.176;27.548;2023-08-20T12:23:44;5.57;;;4.65;;
48805;SDS011;34625;47.176;27.548;2023-08-20T12:26:10;8.45;;;4.15;;
48805;SDS011;34625;47.176;27.548;2023-08-20T12:28:36;6.80;;;4.13;;
48805;SDS011;34625;47.176;27.548;2023-08-20T12:31:02;7.95;;;4.95;;
48805;SDS011;34625;47.176;27.548;2023-08-20T12:33:28;4.90;;;4.03;;
48805;SDS011;34625;47.176;27.548;2023-08-20T12:35:54;4.38;;;3.50;;
48805;SDS011;34625;47.176;27.548;2023-08-20T12:38:21;6.10;;;3.80;;
48805;SDS011;34625;47.176;27.548;2023-08-20T12:40:47;4.95;;;4.20;;
48805;SDS011;34625;47.176;27.548;2023-08-20T12:43:13;5.45;;;4.25;;
48805;SDS011;34625;47.176;27.548;2023-08-20T12:45:39;5.07;;;4.03;;
48805;SDS011;34625;47.176;27.548;2023-08-20T12:48:05;5.00;;;3.78;;
48805;SDS011;34625;47.176;27.548;2023-08-20T12:50:33;5.45;;;3.90;;
48805;SDS011;34625;47.176;27.548;2023-08-20T12:52:59;4.25;;;3.80;;
48805;SDS011;34625;47.176;27.548;2023-08-20T12:55:25;5.25;;;3.80;;
48805;SDS011;34625;47.176;27.548;2023-08-20T12:57:52;4.95;;;3.60;;
48805;SDS011;34625;47.176;27.548;2023-08-20T13:00:20;4.88;;;3.47;;
48805;SDS011;34625;47.176;27.548;2023-08-20T13:02:47;5.15;;;4.10;;
48805;SDS011;34625;47.176;27.548;2023-08-20T13:05:14;4.57;;;3.30;;
48805;SDS011;34625;47.176;27.548;2023-08-20T13:07:40;8.13;;;4.38;;
48805;SDS011;34625;47.176;27.548;2023-08-20T13:10:06;3.40;;;2.92;;
48805;SDS011;34625;47.176;27.548;2023-08-20T13:12:34;5.90;;;4.10;;
48805;SDS011;34625;47.176;27.548;2023-08-20T13:15:00;5.88;;;3.83;;
48805;SDS011;34625;47.176;27.548;2023-08-20T13:17:29;6.45;;;3.75;;
48805;SDS011;34625;47.176;27.548;2023-08-20T13:19:55;3.83;;;3.42;;
48805;SDS011;34625;47.176;27.548;2023-08-20T13:22:22;4.70;;;3.53;;
48805;SDS011;34625;47.176;27.548;2023-08-20T13:24:47;6.85;;;3.47;;
48805;SDS011;34625;47.176;27.548;2023-08-20T13:27:14;4.30;;;3.85;;
48805;SDS011;34625;47.176;27.548;2023-08-20T13:29:40;6.30;;;3.88;;
48805;SDS011;34625;47.176;27.548;2023-08-20T13:32:06;3.70;;;3.30;;
48805;SDS011;34625;47.176;27.548;2023-08-20T13:34:32;3.97;;;3.28;;
48805;SDS011;34625;47.176;27.548;2023-08-20T13:36:58;4.50;;;2.90;;
48805;SDS011;34625;47.176;27.548;2023-08-20T13:39:24;3.00;;;2.80;;
48805;SDS011;34625;47.176;27.548;2023-08-20T13:41:51;5.43;;;3.05;;
48805;SDS011;34625;47.176;27.548;2023-08-20T13:44:17;3.45;;;3.13;;
48805;SDS011;34625;47.176;27.548;2023-08-20T13:46:45;3.28;;;2.95;;
48805;SDS011;34625;47.176;27.548;2023-08-20T13:49:11;4.38;;;2.28;;
48805;SDS011;34625;47.176;27.548;2023-08-20T13:51:37;2.60;;;2.40;;
48805;SDS011;34625;47.176;27.548;2023-08-20T13:54:03;3.10;;;2.72;;
48805;SDS011;34625;47.176;27.548;2023-08-20T13:56:29;2.35;;;2.15;;
48805;SDS011;34625;47.176;27.548;2023-08-20T13:58:55;3.38;;;2.92;;
48805;SDS011;34625;47.176;27.548;2023-08-20T14:01:22;2.40;;;2.20;;
48805;SDS011;34625;47.176;27.548;2023-08-20T14:03:48;3.45;;;3.15;;
48805;SDS011;34625;47.176;27.548;2023-08-20T14:06:15;3.08;;;2.25;;
48805;SDS011;34625;47.176;27.548;2023-08-20T14:08:42;1.88;;;1.75;;
48805;SDS011;34625;47.176;27.548;2023-08-20T14:11:08;2.30;;;2.10;;
48805;SDS011;34625;47.176;27.548;2023-08-20T14:13:34;2.20;;;2.00;;
48805;SDS011;34625;47.176;27.548;2023-08-20T14:16:01;3.20;;;2.00;;
48805;SDS011;34625;47.176;27.548;2023-08-20T14:18:28;2.00;;;1.80;;
48805;SDS011;34625;47.176;27.548;2023-08-20T14:20:54;2.17;;;1.98;;
48805;SDS011;34625;47.176;27.548;2023-08-20T14:23:20;2.17;;;1.98;;
48805;SDS011;34625;47.176;27.548;2023-08-20T14:25:46;3.95;;;1.92;;
48805;SDS011;34625;47.176;27.548;2023-08-20T14:28:12;2.25;;;2.05;;
48805;SDS011;34625;47.176;27.548;2023-08-20T14:30:39;1.90;;;1.80;;
48805;SDS011;34625;47.176;27.548;2023-08-20T14:33:05;4.78;;;2.53;;
48805;SDS011;34625;47.176;27.548;2023-08-20T14:35:31;3.20;;;2.25;;
48805;SDS011;34625;47.176;27.548;2023-08-20T14:37:58;2.88;;;2.60;;
48805;SDS011;34625;47.176;27.548;2023-08-20T14:40:27;2.22;;;2.03;;
48805;SDS011;34625;47.176;27.548;2023-08-20T14:42:53;3.15;;;2.08;;
48805;SDS011;34625;47.176;27.548;2023-08-20T14:45:20;4.03;;;2.70;;
48805;SDS011;34625;47.176;27.548;2023-08-20T14:47:46;4.65;;;4.15;;
48805;SDS011;34625;47.176;27.548;2023-08-20T14:50:12;5.97;;;4.68;;
48805;SDS011;34625;47.176;27.548;2023-08-20T14:52:38;4.15;;;3.45;;
48805;SDS011;34625;47.176;27.548;2023-08-20T14:55:04;3.80;;;3.35;;
48805;SDS011;34625;47.176;27.548;2023-08-20T14:57:33;5.20;;;2.90;;
48805;SDS011;34625;47.176;27.548;2023-08-20T14:59:59;3.58;;;2.90;;
48805;SDS011;34625;47.176;27.548;2023-08-20T15:02:25;2.95;;;2.65;;